createdAt,value
2023-01-31T00:01:41.632Z,4.73
2023-01-31T00:04:12.670Z,4.40
2023-01-31T00:06:51.068Z,5.07
2023-01-31T00:09:18.623Z,3.07
2023-01-31T00:11:45.977Z,4.60
2023-01-31T00:14:21.050Z,4.87
2023-01-31T00:16:48.704Z,4.07
2023-01-31T00:19:15.861Z,4.50
2023-01-31T00:21:44.033Z,4.10
2023-01-31T00:24:13.910Z,4.10
2023-01-31T00:26:40.895Z,4.00
2023-01-31T00:29:07.816Z,4.33
2023-01-31T00:31:36.130Z,4.00
2023-01-31T00:34:03.729Z,4.30
2023-01-31T00:36:34.998Z,4.20
2023-01-31T00:39:04.507Z,5.53
2023-01-31T00:41:32.474Z,4.40
2023-01-31T00:43:59.562Z,3.73
2023-01-31T00:46:27.412Z,3.67
2023-01-31T00:48:56.644Z,4.53
2023-01-31T00:51:26.730Z,5.30
2023-01-31T00:53:54.647Z,4.97
2023-01-31T00:56:24.701Z,4.83
2023-01-31T00:58:53.248Z,3.57
2023-01-31T01:01:27.085Z,5.37
2023-01-31T01:03:56.195Z,3.60
2023-01-31T01:06:23.950Z,5.20
2023-01-31T01:08:50.908Z,4.57
2023-01-31T01:11:25.525Z,3.90
2023-01-31T01:13:52.967Z,5.77
2023-01-31T01:16:25.071Z,5.20
2023-01-31T01:18:55.212Z,3.87
2023-01-31T01:21:29.006Z,4.80
2023-01-31T01:23:59.060Z,3.90
2023-01-31T01:26:30.957Z,4.83
2023-01-31T01:29:00.696Z,4.23
2023-01-31T01:31:32.482Z,4.70
2023-01-31T01:34:04.782Z,4.70
2023-01-31T01:36:37.942Z,4.50
2023-01-31T01:39:07.201Z,4.13
2023-01-31T01:41:34.178Z,4.73
2023-01-31T01:44:05.014Z,3.97
2023-01-31T01:46:39.204Z,5.90
2023-01-31T01:49:21.146Z,4.00
2023-01-31T01:51:50.916Z,4.67
2023-01-31T01:54:27.128Z,5.07
2023-01-31T01:57:04.512Z,5.37
2023-01-31T01:59:51.262Z,4.53
2023-01-31T02:02:18.771Z,4.90
2023-01-31T02:04:49.935Z,4.90
2023-01-31T02:07:17.030Z,4.70
2023-01-31T02:10:42.589Z,4.93
2023-01-31T02:13:11.681Z,6.63
2023-01-31T02:15:38.657Z,4.37
2023-01-31T02:18:07.139Z,5.13
2023-01-31T02:21:17.323Z,4.20
2023-01-31T02:24:49.434Z,5.13
2023-01-31T02:27:46.941Z,5.20
2023-01-31T02:31:15.012Z,7.53
2023-01-31T02:34:42.454Z,4.57
2023-01-31T02:37:50.627Z,3.33
2023-01-31T02:40:45.418Z,3.70
2023-01-31T02:43:26.739Z,4.47
2023-01-31T02:46:11.706Z,4.67
2023-01-31T02:49:03.366Z,4.23
2023-01-31T02:51:38.895Z,3.13
2023-01-31T02:54:17.539Z,3.70
2023-01-31T02:56:46.646Z,4.80
2023-01-31T02:59:28.025Z,3.90
2023-01-31T03:02:02.706Z,4.20
2023-01-31T03:04:36.984Z,3.53
2023-01-31T03:07:26.586Z,4.57
2023-01-31T03:10:10.453Z,3.87
2023-01-31T03:13:08.390Z,5.30
2023-01-31T03:16:41.630Z,3.90
2023-01-31T03:19:29.545Z,4.43
2023-01-31T03:22:04.364Z,4.90
2023-01-31T03:24:32.629Z,5.73
2023-01-31T03:27:02.846Z,3.67
2023-01-31T03:29:36.272Z,4.30
2023-01-31T03:32:35.321Z,4.30
2023-01-31T03:35:03.176Z,3.70
2023-01-31T03:37:44.993Z,3.40
2023-01-31T03:40:24.243Z,3.77
2023-01-31T03:43:00.672Z,3.73
2023-01-31T03:45:52.909Z,3.30
2023-01-31T03:48:22.990Z,4.47
2023-01-31T03:51:01.076Z,3.67
2023-01-31T03:53:44.194Z,3.80
2023-01-31T03:56:17.758Z,4.00
2023-01-31T03:58:53.089Z,3.20
2023-01-31T04:01:23.755Z,4.40
2023-01-31T04:04:18.195Z,4.97
2023-01-31T04:06:45.148Z,5.20
2023-01-31T04:09:12.476Z,3.63
2023-01-31T04:11:42.631Z,3.90
2023-01-31T04:14:11.370Z,4.80
2023-01-31T04:16:38.464Z,3.93
2023-01-31T04:19:06.016Z,2.60
2023-01-31T04:21:33.200Z,4.20
2023-01-31T04:24:01.300Z,5.20
2023-01-31T04:26:28.306Z,3.00
2023-01-31T04:28:55.367Z,3.53
2023-01-31T04:31:22.362Z,3.50
2023-01-31T04:33:49.551Z,3.03
2023-01-31T04:36:16.476Z,3.07
2023-01-31T04:38:43.375Z,3.63
2023-01-31T04:41:10.782Z,4.33
2023-01-31T04:43:38.149Z,2.80
2023-01-31T04:46:05.274Z,3.47
2023-01-31T04:48:32.206Z,4.13
2023-01-31T04:50:59.246Z,3.53
2023-01-31T04:53:26.179Z,3.80
2023-01-31T04:55:56.570Z,4.83
2023-01-31T04:58:24.036Z,4.37
2023-01-31T05:00:51.029Z,3.73
2023-01-31T05:03:17.984Z,3.67
2023-01-31T05:05:44.980Z,4.53
2023-01-31T05:08:11.869Z,4.67
2023-01-31T05:10:38.825Z,4.43
2023-01-31T05:13:06.171Z,3.63
2023-01-31T05:15:33.329Z,3.60
2023-01-31T05:18:03.229Z,4.43
2023-01-31T05:20:39.807Z,2.77
2023-01-31T05:23:07.870Z,3.83
2023-01-31T05:25:36.704Z,4.50
2023-01-31T05:28:05.535Z,4.30
2023-01-31T05:30:33.206Z,4.60
2023-01-31T05:33:00.452Z,3.73
2023-01-31T05:35:28.058Z,4.20
2023-01-31T05:37:56.154Z,4.37
2023-01-31T05:40:24.626Z,4.57
2023-01-31T05:43:03.161Z,4.40
2023-01-31T05:45:31.374Z,4.87
2023-01-31T05:47:59.370Z,3.97
2023-01-31T05:50:26.815Z,3.13
2023-01-31T05:53:03.378Z,5.60
2023-01-31T05:55:31.230Z,3.67
2023-01-31T05:58:01.538Z,4.00
2023-01-31T06:00:28.677Z,4.77
2023-01-31T06:03:00.067Z,4.67
2023-01-31T06:05:28.012Z,4.00
2023-01-31T06:07:55.495Z,4.80
2023-01-31T06:10:22.819Z,4.43
2023-01-31T06:12:49.857Z,4.93
2023-01-31T06:15:16.998Z,4.10
2023-01-31T06:17:44.031Z,3.40
2023-01-31T06:20:11.984Z,4.23
2023-01-31T06:22:38.975Z,4.13
2023-01-31T06:25:06.803Z,3.50
2023-01-31T06:27:35.077Z,3.80
2023-01-31T06:30:02.542Z,2.90
2023-01-31T06:32:29.372Z,4.73
2023-01-31T06:34:56.313Z,4.40
2023-01-31T06:37:23.291Z,4.70
2023-01-31T06:39:50.213Z,4.20
2023-01-31T06:42:17.118Z,4.50
2023-01-31T06:44:44.151Z,4.20
2023-01-31T06:47:13.328Z,4.27
2023-01-31T06:49:40.321Z,4.37
2023-01-31T06:52:07.274Z,5.10
2023-01-31T06:54:34.241Z,3.90
2023-01-31T06:57:01.101Z,4.93
2023-01-31T06:59:28.098Z,4.80
2023-01-31T07:01:55.146Z,4.57
2023-01-31T07:04:22.375Z,4.03
2023-01-31T07:06:49.342Z,3.77
2023-01-31T07:09:16.323Z,3.80
2023-01-31T07:11:43.264Z,3.70
2023-01-31T07:14:10.305Z,4.43
2023-01-31T07:16:38.328Z,4.33
2023-01-31T07:19:05.440Z,5.00
2023-01-31T07:21:33.525Z,4.60
2023-01-31T07:24:00.529Z,3.60
2023-01-31T07:26:27.509Z,3.63
2023-01-31T07:28:54.575Z,4.37
2023-01-31T07:31:22.026Z,5.10
2023-01-31T07:33:49.033Z,3.20
2023-01-31T07:36:20.196Z,4.43
2023-01-31T07:38:47.252Z,3.70
2023-01-31T07:41:14.250Z,3.30
2023-01-31T07:43:41.243Z,3.67
2023-01-31T07:46:11.121Z,2.97
2023-01-31T07:48:38.901Z,5.00
2023-01-31T07:51:07.035Z,4.13
2023-01-31T07:53:42.333Z,4.10
2023-01-31T07:56:15.385Z,4.40
2023-01-31T07:58:45.126Z,3.20
2023-01-31T08:01:37.609Z,3.40
2023-01-31T08:04:21.757Z,3.20
2023-01-31T08:06:54.466Z,3.77
2023-01-31T08:09:22.001Z,3.57
2023-01-31T08:11:49.443Z,3.73
2023-01-31T08:14:16.424Z,4.00
2023-01-31T08:16:43.600Z,3.60
2023-01-31T08:19:10.601Z,3.60
2023-01-31T08:21:37.454Z,4.00
2023-01-31T08:24:04.880Z,4.57
2023-01-31T08:26:31.855Z,4.77
2023-01-31T08:29:00.229Z,4.20
2023-01-31T08:31:28.716Z,4.33
2023-01-31T08:33:57.533Z,4.33
2023-01-31T08:36:32.038Z,3.07
2023-01-31T08:39:00.449Z,4.77
2023-01-31T08:41:29.552Z,3.90
2023-01-31T08:43:59.001Z,3.13
2023-01-31T08:46:31.063Z,3.63
2023-01-31T08:49:00.641Z,4.33
2023-01-31T08:51:28.073Z,4.50
2023-01-31T08:53:55.162Z,4.00
2023-01-31T08:56:25.990Z,4.20
2023-01-31T08:58:54.806Z,3.90
2023-01-31T09:01:23.053Z,3.83
2023-01-31T09:03:50.842Z,2.90
2023-01-31T09:06:21.990Z,3.10
2023-01-31T09:08:49.252Z,3.60
2023-01-31T09:11:19.444Z,4.33
2023-01-31T09:13:52.268Z,3.93
2023-01-31T09:16:20.011Z,2.67
2023-01-31T09:18:47.579Z,3.50
2023-01-31T09:21:19.041Z,3.43
2023-01-31T09:23:47.391Z,3.90
2023-01-31T09:26:16.698Z,3.70
2023-01-31T09:28:44.727Z,3.13
2023-01-31T09:31:16.162Z,4.40
2023-01-31T09:33:43.543Z,4.00
2023-01-31T09:36:17.877Z,3.03
2023-01-31T09:38:45.780Z,4.17
2023-01-31T09:41:40.145Z,4.73
2023-01-31T09:44:31.047Z,2.90
2023-01-31T09:47:37.504Z,4.47
2023-01-31T09:50:11.414Z,3.07
2023-01-31T09:52:39.069Z,4.50
2023-01-31T09:55:08.589Z,3.43
2023-01-31T09:57:42.338Z,3.03
2023-01-31T10:00:27.542Z,4.33
2023-01-31T10:03:19.039Z,4.40
2023-01-31T10:06:22.682Z,5.07
2023-01-31T10:09:08.121Z,5.80
2023-01-31T10:11:43.022Z,4.30
2023-01-31T10:14:32.812Z,3.93
2023-01-31T10:17:24.546Z,3.23
2023-01-31T10:20:03.643Z,4.70
2023-01-31T10:22:41.209Z,5.40
2023-01-31T10:25:13.959Z,3.20
2023-01-31T10:27:53.526Z,2.80
2023-01-31T10:30:55.936Z,3.13
2023-01-31T10:33:56.039Z,2.27
2023-01-31T10:36:33.390Z,2.17
2023-01-31T10:39:15.413Z,3.33
2023-01-31T10:42:17.330Z,2.50
2023-01-31T10:44:55.678Z,2.37
2023-01-31T10:47:34.020Z,2.53
2023-01-31T10:50:08.151Z,2.97
2023-01-31T10:52:44.013Z,1.97
2023-01-31T10:55:44.947Z,1.90
2023-01-31T10:58:17.445Z,1.50
2023-01-31T11:00:47.511Z,1.53
2023-01-31T11:03:16.510Z,2.30
2023-01-31T11:05:57.159Z,2.03
2023-01-31T11:08:33.149Z,3.23
2023-01-31T11:11:20.879Z,2.07
2023-01-31T11:14:01.257Z,1.97
2023-01-31T11:16:33.678Z,2.20
2023-01-31T11:19:13.678Z,2.00
2023-01-31T11:21:40.935Z,2.17
2023-01-31T11:24:32.998Z,2.27
2023-01-31T11:27:10.774Z,1.60
2023-01-31T11:29:51.330Z,1.80
2023-01-31T11:32:23.682Z,2.37
2023-01-31T11:35:07.124Z,1.53
2023-01-31T11:37:35.080Z,1.30
2023-01-31T11:40:22.855Z,2.30
2023-01-31T11:42:55.870Z,2.13
2023-01-31T11:45:31.500Z,1.50
2023-01-31T11:48:08.608Z,1.17
2023-01-31T11:51:00.160Z,1.70
2023-01-31T11:53:35.377Z,1.50
2023-01-31T11:56:26.281Z,2.43
2023-01-31T11:59:04.325Z,2.10
2023-01-31T12:01:32.500Z,2.20
2023-01-31T12:04:06.690Z,1.73
2023-01-31T12:06:37.339Z,2.37
2023-01-31T12:09:20.870Z,2.10
2023-01-31T12:11:57.768Z,3.00
2023-01-31T12:14:40.707Z,1.60
2023-01-31T12:17:14.659Z,1.83
2023-01-31T12:20:09.063Z,2.53
2023-01-31T12:22:55.324Z,2.60
2023-01-31T12:25:23.195Z,2.10
2023-01-31T12:28:15.631Z,2.63
2023-01-31T12:31:20.636Z,2.53
2023-01-31T12:34:23.947Z,2.63
2023-01-31T12:37:20.989Z,3.20
2023-01-31T12:40:33.960Z,2.40
2023-01-31T12:43:08.265Z,3.87
2023-01-31T12:46:16.614Z,3.63
2023-01-31T12:49:19.222Z,4.40
2023-01-31T12:52:23.528Z,2.83
2023-01-31T12:55:21.873Z,3.00
2023-01-31T12:58:19.019Z,2.97
2023-01-31T13:01:07.459Z,3.13
2023-01-31T13:03:39.385Z,2.93
2023-01-31T13:06:18.301Z,3.30
2023-01-31T13:09:09.019Z,2.93
2023-01-31T13:11:44.606Z,3.00
2023-01-31T13:14:25.137Z,2.70
2023-01-31T13:17:01.442Z,2.73
2023-01-31T13:19:52.945Z,2.80
2023-01-31T13:22:30.633Z,3.20
2023-01-31T13:25:29.087Z,2.83
2023-01-31T13:28:03.075Z,2.60
2023-01-31T13:30:58.290Z,3.10
2023-01-31T13:33:33.220Z,4.03
2023-01-31T13:37:03.467Z,3.47
2023-01-31T13:39:51.308Z,2.60
2023-01-31T13:42:18.881Z,3.07
2023-01-31T13:44:49.388Z,3.40
2023-01-31T13:47:26.250Z,2.50
2023-01-31T13:50:09.528Z,2.20
2023-01-31T13:52:52.591Z,3.07
2023-01-31T13:55:32.819Z,2.80
2023-01-31T13:58:19.217Z,3.00
2023-01-31T14:00:53.739Z,2.63
2023-01-31T14:03:21.680Z,3.73
2023-01-31T14:06:03.388Z,2.47
2023-01-31T14:08:30.273Z,2.23
2023-01-31T14:11:17.385Z,2.17
2023-01-31T14:13:50.240Z,2.40
2023-01-31T14:16:46.380Z,3.20
2023-01-31T14:19:19.271Z,2.23
2023-01-31T14:22:15.227Z,2.43
2023-01-31T14:24:50.850Z,3.17
2023-01-31T14:27:31.585Z,3.00
2023-01-31T14:30:04.981Z,3.03
2023-01-31T14:32:36.843Z,2.57
2023-01-31T14:35:12.751Z,2.83
2023-01-31T14:38:20.978Z,2.50
2023-01-31T14:41:11.886Z,3.43
2023-01-31T14:44:25.129Z,3.13
2023-01-31T14:47:43.222Z,3.10
2023-01-31T14:50:47.609Z,3.13
2023-01-31T14:54:06.660Z,2.50
2023-01-31T14:57:02.842Z,4.13
2023-01-31T14:59:37.932Z,3.93
2023-01-31T15:02:36.585Z,3.00
2023-01-31T15:05:13.568Z,3.77
2023-01-31T15:08:03.996Z,4.40
2023-01-31T15:11:04.958Z,3.57
2023-01-31T15:13:53.014Z,2.93
2023-01-31T15:16:33.061Z,3.00
2023-01-31T15:19:19.811Z,2.90
2023-01-31T15:21:54.603Z,3.70
2023-01-31T15:24:40.579Z,3.00
2023-01-31T15:27:33.820Z,5.33
2023-01-31T15:30:14.001Z,4.00
2023-01-31T15:32:52.659Z,3.43
2023-01-31T15:35:29.769Z,2.83
2023-01-31T15:38:39.773Z,2.23
2023-01-31T15:41:18.750Z,3.10
2023-01-31T15:43:47.409Z,3.40
2023-01-31T15:46:30.928Z,6.03
2023-01-31T15:48:59.882Z,6.20
2023-01-31T15:51:28.092Z,7.73
2023-01-31T15:54:07.496Z,23.17
2023-01-31T15:56:42.295Z,22.50
2023-01-31T15:59:15.210Z,25.87
2023-01-31T16:01:50.187Z,5.40
2023-01-31T16:04:17.252Z,4.67
2023-01-31T16:06:47.017Z,3.30
2023-01-31T16:09:32.529Z,3.63
2023-01-31T16:12:02.215Z,5.30
2023-01-31T16:14:30.172Z,4.50
2023-01-31T16:16:59.231Z,3.47
2023-01-31T16:19:31.409Z,2.87
2023-01-31T16:21:59.699Z,2.70
2023-01-31T16:24:26.653Z,3.50
2023-01-31T16:27:09.797Z,3.10
2023-01-31T16:29:48.452Z,3.20
2023-01-31T16:32:24.327Z,3.87
2023-01-31T16:35:08.487Z,2.47
2023-01-31T16:37:40.001Z,2.17
2023-01-31T16:40:30.298Z,2.00
2023-01-31T16:43:32.269Z,4.70
2023-01-31T16:46:08.384Z,4.33
2023-01-31T16:48:38.776Z,4.37
2023-01-31T16:51:25.779Z,3.60
2023-01-31T16:54:20.264Z,4.90
2023-01-31T16:57:06.216Z,3.63
2023-01-31T16:59:39.018Z,3.43
2023-01-31T17:02:08.720Z,4.10
2023-01-31T17:04:40.072Z,4.57
2023-01-31T17:07:18.306Z,4.20
2023-01-31T17:09:47.286Z,4.27
2023-01-31T17:12:28.381Z,2.83
2023-01-31T17:15:02.873Z,2.97
2023-01-31T17:17:37.699Z,3.90
2023-01-31T17:20:05.811Z,3.13
2023-01-31T17:22:32.859Z,5.70
2023-01-31T17:24:59.812Z,9.93
2023-01-31T17:27:26.947Z,5.83
2023-01-31T17:29:53.985Z,3.57
2023-01-31T17:32:22.012Z,4.03
2023-01-31T17:34:49.127Z,3.20
2023-01-31T17:37:20.747Z,3.00
2023-01-31T17:39:50.964Z,4.47
2023-01-31T17:42:21.677Z,4.97
2023-01-31T17:44:48.691Z,4.60
2023-01-31T17:47:17.923Z,4.40
2023-01-31T17:49:45.336Z,4.13
2023-01-31T17:52:12.421Z,4.07
2023-01-31T17:54:39.443Z,3.70
2023-01-31T17:57:06.408Z,4.57
2023-01-31T17:59:33.359Z,4.03
2023-01-31T18:02:00.778Z,5.30
2023-01-31T18:04:27.782Z,5.70
2023-01-31T18:06:55.065Z,4.03
2023-01-31T18:09:22.135Z,4.47
2023-01-31T18:11:49.148Z,4.80
2023-01-31T18:14:16.158Z,3.80
2023-01-31T18:16:43.363Z,5.70
2023-01-31T18:19:11.770Z,5.50
2023-01-31T18:21:41.408Z,5.50
2023-01-31T18:24:14.247Z,5.60
2023-01-31T18:26:41.486Z,4.90
2023-01-31T18:29:09.113Z,5.50
2023-01-31T18:31:36.183Z,4.07
2023-01-31T18:34:03.233Z,5.13
2023-01-31T18:36:30.251Z,6.97
2023-01-31T18:38:57.177Z,6.10
2023-01-31T18:41:24.244Z,7.00
2023-01-31T18:43:51.250Z,4.80
2023-01-31T18:46:18.480Z,5.03
2023-01-31T18:48:46.076Z,4.07
2023-01-31T18:51:15.445Z,5.10
2023-01-31T18:53:45.800Z,4.93
2023-01-31T18:56:19.594Z,5.23
2023-01-31T18:58:52.891Z,4.03
2023-01-31T19:01:28.653Z,3.87
2023-01-31T19:03:58.430Z,4.73
2023-01-31T19:06:29.345Z,3.67
2023-01-31T19:08:58.594Z,4.27
2023-01-31T19:11:28.809Z,2.47
2023-01-31T19:13:57.153Z,3.80
2023-01-31T19:16:29.495Z,3.83
2023-01-31T19:18:57.844Z,3.17
2023-01-31T19:21:29.156Z,4.27
2023-01-31T19:24:01.964Z,4.13
2023-01-31T19:26:31.713Z,3.97
2023-01-31T19:29:00.038Z,4.20
2023-01-31T19:31:32.876Z,3.90
2023-01-31T19:34:03.337Z,3.70
2023-01-31T19:36:40.208Z,3.87
2023-01-31T19:39:11.323Z,3.30
2023-01-31T19:41:38.560Z,3.30
2023-01-31T19:44:05.698Z,3.80
2023-01-31T19:46:36.187Z,3.83
2023-01-31T19:49:04.547Z,5.20
2023-01-31T19:51:32.503Z,5.47
2023-01-31T19:54:01.982Z,3.67
2023-01-31T19:56:30.716Z,5.80
2023-01-31T19:58:57.738Z,4.70
2023-01-31T20:01:25.023Z,4.27
2023-01-31T20:03:58.293Z,4.70
2023-01-31T20:06:28.969Z,5.80
2023-01-31T20:09:00.179Z,7.10
2023-01-31T20:11:29.401Z,5.17
2023-01-31T20:14:00.378Z,8.07
2023-01-31T20:16:29.280Z,5.73
2023-01-31T20:18:57.045Z,4.80
2023-01-31T20:21:24.268Z,6.17
2023-01-31T20:23:51.652Z,3.90
2023-01-31T20:26:22.422Z,6.07
2023-01-31T20:28:49.923Z,7.07
2023-01-31T20:31:18.785Z,6.73
2023-01-31T20:33:46.147Z,5.80
2023-01-31T20:36:14.673Z,6.90
2023-01-31T20:38:41.685Z,5.10
2023-01-31T20:41:09.818Z,3.23
2023-01-31T20:43:37.943Z,3.73
2023-01-31T20:46:10.618Z,4.17
2023-01-31T20:48:42.568Z,4.40
2023-01-31T20:51:09.974Z,3.67
2023-01-31T20:53:37.625Z,3.83
2023-01-31T20:56:08.107Z,4.40
2023-01-31T20:58:39.731Z,3.97
2023-01-31T21:01:09.059Z,4.67
2023-01-31T21:03:36.914Z,3.83
2023-01-31T21:06:05.387Z,5.50
2023-01-31T21:08:33.479Z,4.43
2023-01-31T21:11:00.858Z,3.00
2023-01-31T21:13:30.965Z,3.80
2023-01-31T21:16:04.350Z,3.17
2023-01-31T21:18:35.371Z,4.50
2023-01-31T21:21:09.610Z,4.27
2023-01-31T21:23:39.294Z,2.43
2023-01-31T21:26:10.128Z,3.60
2023-01-31T21:28:40.143Z,4.97
2023-01-31T21:31:12.919Z,3.60
2023-01-31T21:33:40.051Z,3.10
2023-01-31T21:36:09.922Z,3.00
2023-01-31T21:38:37.948Z,3.90
2023-01-31T21:41:24.011Z,3.03
2023-01-31T21:43:51.034Z,2.83
2023-01-31T21:46:18.329Z,2.70
2023-01-31T21:48:45.435Z,2.70
2023-01-31T21:51:15.535Z,2.80
2023-01-31T21:53:44.233Z,2.60
2023-01-31T21:56:13.913Z,2.30
2023-01-31T21:58:41.162Z,2.33
2023-01-31T22:01:13.959Z,2.10
2023-01-31T22:03:43.089Z,2.27
2023-01-31T22:06:13.555Z,1.97
2023-01-31T22:08:40.819Z,1.60
2023-01-31T22:11:15.560Z,2.17
2023-01-31T22:13:51.611Z,2.00
2023-01-31T22:16:22.097Z,1.70
2023-01-31T22:18:49.247Z,2.37
2023-01-31T22:21:20.531Z,1.10
2023-01-31T22:23:51.691Z,1.53
2023-01-31T22:26:32.264Z,2.00
2023-01-31T22:29:03.521Z,1.80
2023-01-31T22:31:32.123Z,1.50
2023-01-31T22:34:00.384Z,2.13
2023-01-31T22:36:28.209Z,2.13
2023-01-31T22:38:55.753Z,1.40
2023-01-31T22:41:23.267Z,2.00
2023-01-31T22:43:52.486Z,1.80
2023-01-31T22:46:27.252Z,1.77
2023-01-31T22:48:55.941Z,1.60
2023-01-31T22:51:29.245Z,1.57
2023-01-31T22:53:58.310Z,1.57
2023-01-31T22:56:32.290Z,1.40
2023-01-31T22:59:02.998Z,1.27
2023-01-31T23:01:35.476Z,1.63
2023-01-31T23:04:07.207Z,1.00
2023-01-31T23:06:35.829Z,1.93
2023-01-31T23:09:03.148Z,1.60
2023-01-31T23:11:30.269Z,2.03
2023-01-31T23:13:57.854Z,1.40
2023-01-31T23:16:45.183Z,1.60
2023-01-31T23:19:13.133Z,1.60
2023-01-31T23:21:44.554Z,1.30
2023-01-31T23:24:15.043Z,1.70
2023-01-31T23:26:43.280Z,1.70
2023-01-31T23:29:10.616Z,1.70
2023-01-31T23:31:37.668Z,1.63
2023-01-31T23:34:07.728Z,1.83
2023-01-31T23:36:35.317Z,1.50
2023-01-31T23:39:02.386Z,1.43
2023-01-31T23:41:29.302Z,1.40
2023-01-31T23:43:56.256Z,1.30
2023-01-31T23:46:23.260Z,1.60
2023-01-31T23:48:50.236Z,1.57
2023-01-31T23:51:17.193Z,1.27
2023-01-31T23:53:44.156Z,1.47
2023-01-31T23:56:11.208Z,1.83
2023-01-31T23:58:38.156Z,1.47
